Time;durP1;ratioP1;P1;durP2;ratioP2;P2;SDS_P1;SDS_P2;PMS_P1;PMS_P2;Temp;Humidity;BMP_temperature;BMP_pressure;BME280_temperature;BME280_humidity;BME280_pressure;Samples;Min_cycle;Max_cycle;Signal;HPM_P1;HPM_P2
2021/09/02 00:02:13;;;;;;;7.50;5.57;;;13.00;93.80;;;;;;5057107;28;20021;-67
2021/09/02 00:04:39;;;;;;;8.02;6.10;;;13.00;93.90;;;;;;5055858;28;20060;-67
2021/09/02 00:07:05;;;;;;;8.75;6.10;;;12.90;93.90;;;;;;5056534;28;20029;-67
2021/09/02 00:09:30;;;;;;;7.57;5.53;;;13.00;93.90;;;;;;5056434;28;20031;-67
2021/09/02 00:11:57;;;;;;;9.25;6.40;;;12.90;93.90;;;;;;5056427;28;20044;-67
2021/09/02 00:14:23;;;;;;;7.75;5.85;;;12.90;93.90;;;;;;5056281;28;20021;-67
2021/09/02 00:16:49;;;;;;;7.70;5.90;;;12.90;94.00;;;;;;5056019;28;20040;-67
2021/09/02 00:19:15;;;;;;;7.78;5.57;;;12.90;94.30;;;;;;5056377;28;20013;-67
2021/09/02 00:21:40;;;;;;;8.35;6.10;;;12.90;94.10;;;;;;5034225;28;20024;-67
2021/09/02 00:24:06;;;;;;;7.95;5.85;;;12.90;94.10;;;;;;5053333;28;20025;-67
2021/09/02 00:26:32;;;;;;;8.13;6.38;;;12.90;94.10;;;;;;5051903;28;20044;-67
2021/09/02 00:28:58;;;;;;;8.57;5.35;;;12.90;94.10;;;;;;5053320;28;20033;-67
2021/09/02 00:31:23;;;;;;;7.18;5.47;;;12.80;94.00;;;;;;5054100;28;20036;-67
2021/09/02 00:33:49;;;;;;;7.32;5.18;;;12.70;93.90;;;;;;5053238;28;20091;-67
2021/09/02 00:36:15;;;;;;;6.40;4.97;;;12.60;94.10;;;;;;5052854;28;20116;-67
2021/09/02 00:38:40;;;;;;;8.27;5.45;;;12.60;94.00;;;;;;5052519;28;20496;-67
2021/09/02 00:41:06;;;;;;;7.45;5.45;;;12.60;94.10;;;;;;5053401;28;20025;-67
2021/09/02 00:43:39;;;;;;;7.57;5.80;;;12.50;94.20;;;;;;5053013;28;20032;-67
2021/09/02 00:46:06;;;;;;;8.00;5.50;;;12.60;94.30;;;;;;5049899;28;20029;-67
2021/09/02 00:48:33;;;;;;;8.18;6.32;;;12.60;94.30;;;;;;5053293;28;20044;-67
2021/09/02 00:50:59;;;;;;;9.27;5.90;;;12.60;94.30;;;;;;5049828;28;20036;-67
2021/09/02 00:53:24;;;;;;;8.20;6.00;;;12.60;94.30;;;;;;5052514;28;20021;-67
2021/09/02 00:55:50;;;;;;;8.35;5.43;;;12.60;94.30;;;;;;5052056;28;20029;-67
2021/09/02 00:58:19;;;;;;;8.18;5.55;;;12.60;94.20;;;;;;5052735;28;20380;-67
2021/09/02 01:00:45;;;;;;;7.60;5.45;;;12.50;94.20;;;;;;5052889;28;20044;-67
2021/09/02 01:03:11;;;;;;;7.28;5.45;;;12.50;94.30;;;;;;5052572;28;20029;-67
2021/09/02 01:05:37;;;;;;;8.27;5.82;;;12.50;94.20;;;;;;5052265;28;20029;-67
2021/09/02 01:08:04;;;;;;;8.98;5.53;;;12.50;94.20;;;;;;5052361;28;20106;-67
2021/09/02 01:10:30;;;;;;;8.43;5.70;;;12.40;94.10;;;;;;5050772;28;20056;-67
2021/09/02 01:12:56;;;;;;;8.88;5.80;;;12.40;94.20;;;;;;5052486;28;20056;-67
2021/09/02 01:15:24;;;;;;;7.60;5.68;;;12.30;94.30;;;;;;5051985;28;20028;-67
2021/09/02 01:17:51;;;;;;;7.32;5.43;;;12.30;94.30;;;;;;5015053;28;20091;-67
2021/09/02 01:20:19;;;;;;;6.65;5.32;;;12.30;94.20;;;;;;5038209;28;20025;-67
2021/09/02 01:22:47;;;;;;;10.82;5.88;;;12.20;94.20;;;;;;5051716;28;20021;-67
2021/09/02 01:25:16;;;;;;;6.80;5.35;;;12.10;94.10;;;;;;5033619;28;20029;-67
2021/09/02 01:27:46;;;;;;;8.73;5.35;;;12.10;94.10;;;;;;5047552;28;20485;-67
2021/09/02 01:30:14;;;;;;;8.30;5.72;;;12.10;94.30;;;;;;5063460;28;20440;-67
2021/09/02 01:32:45;;;;;;;8.43;5.10;;;12.00;94.30;;;;;;5052002;28;20028;-67
2021/09/02 01:35:13;;;;;;;8.03;5.10;;;12.00;94.40;;;;;;5051746;28;20029;-66
2021/09/02 01:37:43;;;;;;;6.88;5.22;;;12.00;94.30;;;;;;5051421;28;20067;-67
2021/09/02 01:40:18;;;;;;;7.07;5.75;;;12.00;94.40;;;;;;5034120;28;20035;-67
2021/09/02 01:42:44;;;;;;;9.77;6.28;;;12.00;94.50;;;;;;5051854;28;20481;-67
2021/09/02 01:45:10;;;;;;;10.43;7.10;;;12.00;94.50;;;;;;5050984;28;20040;-67
2021/09/02 01:47:36;;;;;;;8.75;6.20;;;12.00;94.60;;;;;;5051867;28;20029;-67
2021/09/02 01:50:09;;;;;;;11.07;6.22;;;12.00;94.50;;;;;;5051143;28;20488;-67
2021/09/02 01:52:35;;;;;;;8.63;5.78;;;12.00;94.40;;;;;;5050422;28;20033;-66
2021/09/02 01:55:02;;;;;;;9.30;6.22;;;12.00;94.30;;;;;;5031797;28;20021;-67
2021/09/02 01:57:28;;;;;;;17.15;8.00;;;11.90;94.20;;;;;;5033681;28;20396;-67
2021/09/02 01:59:53;;;;;;;16.35;8.10;;;11.90;94.20;;;;;;5051400;28;20041;-67
2021/09/02 02:02:19;;;;;;;14.85;8.00;;;11.80;94.30;;;;;;5051470;28;20025;-66
2021/09/02 02:04:44;;;;;;;15.65;8.23;;;11.80;94.40;;;;;;5051194;28;20033;-67
2021/09/02 02:07:10;;;;;;;20.20;9.48;;;11.90;94.50;;;;;;5051044;28;20025;-67
2021/09/02 02:09:36;;;;;;;26.98;10.88;;;11.80;94.60;;;;;;5051373;28;20031;-67
2021/09/02 02:12:01;;;;;;;29.65;10.93;;;11.80;94.60;;;;;;5082047;22;20053;-87
2021/09/02 02:14:27;;;;;;;20.50;9.52;;;11.80;94.70;;;;;;5030561;28;20034;-87
2021/09/02 02:16:53;;;;;;;22.25;9.35;;;11.80;94.60;;;;;;5037482;28;20021;-87
2021/09/02 02:19:18;;;;;;;24.45;10.77;;;11.80;94.60;;;;;;5031861;28;20029;-86
2021/09/02 02:21:44;;;;;;;22.45;9.98;;;11.70;94.60;;;;;;5025636;28;20021;-87
2021/09/02 02:24:10;;;;;;;24.35;10.27;;;11.70;94.60;;;;;;5040311;28;20120;-87
2021/09/02 02:26:36;;;;;;;23.33;10.13;;;11.70;94.80;;;;;;5015309;28;20029;-88
2021/09/02 02:29:01;;;;;;;20.33;9.48;;;11.70;94.80;;;;;;5013799;28;20047;-86
2021/09/02 02:31:27;;;;;;;18.35;8.75;;;11.70;94.90;;;;;;5032358;28;20030;-88
2021/09/02 02:33:57;;;;;;;14.73;8.60;;;11.70;94.90;;;;;;5033686;28;20512;-87
2021/09/02 02:36:22;;;;;;;18.42;8.77;;;11.70;94.90;;;;;;5015022;28;20069;-87
2021/09/02 02:38:48;;;;;;;16.05;8.13;;;11.70;94.90;;;;;;5014601;28;20111;-88
2021/09/02 02:41:14;;;;;;;14.43;7.75;;;11.70;94.80;;;;;;5016484;28;20028;-88
2021/09/02 02:43:39;;;;;;;15.07;7.90;;;11.70;94.80;;;;;;5043205;28;20025;-88
2021/09/02 02:46:05;;;;;;;14.77;8.13;;;11.70;94.70;;;;;;5034606;28;20056;-87
2021/09/02 02:48:31;;;;;;;16.60;8.07;;;11.60;94.80;;;;;;5015177;28;20037;-88
2021/09/02 02:50:56;;;;;;;12.88;8.10;;;11.60;94.80;;;;;;5014178;28;20022;-88
2021/09/02 02:53:22;;;;;;;14.32;7.75;;;11.60;94.80;;;;;;5014255;28;20057;-88
2021/09/02 02:55:47;;;;;;;11.02;6.97;;;11.50;94.80;;;;;;5014048;28;20060;-87
2021/09/02 02:58:13;;;;;;;13.68;7.40;;;11.50;94.90;;;;;;5013955;28;20113;-88
2021/09/02 03:00:39;;;;;;;11.23;6.40;;;11.50;94.90;;;;;;5031614;28;20029;-87
2021/09/02 03:03:04;;;;;;;10.75;7.15;;;11.50;94.90;;;;;;5032416;28;20021;-88
2021/09/02 03:05:30;;;;;;;10.32;7.22;;;11.50;95.20;;;;;;5031378;28;20040;-88
2021/09/02 03:07:55;;;;;;;8.88;6.10;;;11.50;95.00;;;;;;5031505;28;20053;-88
2021/09/02 03:10:21;;;;;;;7.80;6.13;;;11.40;95.00;;;;;;5031786;28;20033;-88
2021/09/02 03:12:46;;;;;;;9.40;6.28;;;11.40;95.00;;;;;;5014384;28;20462;-88
2021/09/02 03:15:12;;;;;;;11.20;7.00;;;11.40;95.00;;;;;;5013524;28;20084;-87
2021/09/02 03:17:38;;;;;;;9.70;6.57;;;11.40;95.10;;;;;;5013475;28;20029;-87
2021/09/02 03:20:06;;;;;;;7.95;6.05;;;11.40;95.10;;;;;;5013947;28;20045;-87
2021/09/02 03:22:32;;;;;;;6.30;5.28;;;11.40;95.10;;;;;;5013505;28;20057;-87
2021/09/02 03:24:57;;;;;;;9.90;6.18;;;11.40;95.10;;;;;;5013170;28;20025;-87
2021/09/02 03:27:23;;;;;;;9.20;6.25;;;11.40;95.10;;;;;;5005631;28;20025;-87
2021/09/02 03:29:49;;;;;;;6.88;5.65;;;11.30;95.10;;;;;;5013597;28;20034;-88
2021/09/02 03:32:14;;;;;;;7.35;5.90;;;11.30;95.10;;;;;;5014393;28;20141;-87
2021/09/02 03:34:40;;;;;;;8.77;6.28;;;11.30;95.10;;;;;;5013076;28;20493;-88
2021/09/02 03:37:05;;;;;;;6.68;5.70;;;11.30;95.20;;;;;;5013958;28;20028;-87
2021/09/02 03:39:32;;;;;;;9.60;6.35;;;11.30;95.20;;;;;;5013673;28;20029;-88
2021/09/02 03:41:58;;;;;;;7.38;6.18;;;11.20;95.20;;;;;;5014218;28;20033;-88
2021/09/02 03:44:23;;;;;;;8.40;6.10;;;11.20;95.20;;;;;;5013883;28;20482;-88
2021/09/02 03:46:49;;;;;;;10.20;5.30;;;11.20;95.20;;;;;;5012687;28;20040;-88
2021/09/02 03:49:14;;;;;;;6.68;5.25;;;11.20;95.20;;;;;;5014440;28;20123;-88
2021/09/02 03:51:40;;;;;;;8.75;6.22;;;11.20;95.10;;;;;;5013661;28;20075;-88
2021/09/02 03:54:05;;;;;;;11.75;6.38;;;11.10;95.10;;;;;;5031372;28;20500;-87
2021/09/02 03:56:31;;;;;;;8.80;5.97;;;11.10;95.10;;;;;;5034827;28;20504;-87
2021/09/02 03:58:57;;;;;;;6.97;5.53;;;11.10;95.10;;;;;;5034946;28;20026;-87
2021/09/02 04:01:25;;;;;;;7.85;6.22;;;11.00;95.10;;;;;;5035003;28;20025;-87
2021/09/02 04:03:51;;;;;;;8.45;6.32;;;11.00;95.10;;;;;;5015551;28;20546;-88
2021/09/02 04:06:16;;;;;;;8.13;6.13;;;11.00;95.20;;;;;;5014404;28;20075;-87
2021/09/02 04:08:42;;;;;;;8.90;6.18;;;11.00;95.20;;;;;;5016379;28;20375;-87
2021/09/02 04:11:07;;;;;;;8.05;6.15;;;10.90;95.20;;;;;;5034904;28;20049;-88
2021/09/02 04:13:33;;;;;;;7.55;5.90;;;10.90;95.20;;;;;;5016590;28;20033;-87
2021/09/02 04:15:58;;;;;;;8.65;5.57;;;10.90;95.10;;;;;;5017008;28;20094;-88
2021/09/02 04:18:24;;;;;;;10.35;6.53;;;10.80;95.00;;;;;;5035358;28;20034;-88
2021/09/02 04:20:50;;;;;;;8.77;6.10;;;10.80;95.10;;;;;;5033472;28;20548;-88
2021/09/02 04:23:15;;;;;;;6.72;5.80;;;10.80;95.20;;;;;;5042992;28;20044;-88
2021/09/02 04:25:41;;;;;;;9.40;6.13;;;10.80;95.20;;;;;;5029882;28;20082;-87
2021/09/02 04:28:06;;;;;;;8.32;5.93;;;10.80;95.20;;;;;;5034278;28;20501;-87
2021/09/02 04:30:32;;;;;;;6.65;4.95;;;10.90;95.30;;;;;;5034561;28;20394;-87
2021/09/02 04:33:01;;;;;;;7.40;5.47;;;10.80;95.10;;;;;;5017244;28;20549;-87
2021/09/02 04:35:26;;;;;;;6.88;5.60;;;10.70;95.00;;;;;;5015652;28;20150;-88
2021/09/02 04:37:52;;;;;;;8.07;5.85;;;10.70;95.10;;;;;;5035766;28;20481;-88
2021/09/02 04:40:17;;;;;;;9.65;6.07;;;10.70;95.20;;;;;;5016103;28;20026;-88
2021/09/02 04:42:43;;;;;;;8.77;6.22;;;10.70;95.20;;;;;;5017178;28;20057;-87
2021/09/02 04:45:10;;;;;;;7.60;5.72;;;10.70;95.20;;;;;;5015881;28;20036;-88
2021/09/02 04:47:35;;;;;;;9.73;5.78;;;10.70;95.30;;;;;;5034314;28;20037;-87
2021/09/02 04:50:03;;;;;;;6.85;5.80;;;10.70;95.30;;;;;;5016580;28;20030;-87
2021/09/02 04:52:30;;;;;;;7.63;5.53;;;10.70;95.20;;;;;;5020716;28;20049;-88
2021/09/02 04:54:56;;;;;;;6.00;5.05;;;10.70;95.10;;;;;;5037321;28;20083;-88
2021/09/02 04:57:21;;;;;;;7.00;4.78;;;10.60;95.10;;;;;;5032781;28;20490;-88
2021/09/02 04:59:47;;;;;;;7.25;5.03;;;10.60;95.10;;;;;;5016027;28;20040;-88
2021/09/02 05:02:14;;;;;;;7.32;5.45;;;10.50;95.20;;;;;;5016321;28;20097;-88
2021/09/02 05:04:40;;;;;;;8.52;4.97;;;10.50;95.10;;;;;;5016278;28;20029;-88
2021/09/02 05:07:06;;;;;;;8.88;5.68;;;10.40;95.10;;;;;;5033835;28;20025;-88
2021/09/02 05:09:31;;;;;;;7.25;5.43;;;10.50;95.20;;;;;;5013938;28;20026;-87
2021/09/02 05:11:57;;;;;;;7.47;5.63;;;10.50;95.30;;;;;;5015512;28;20044;-88
2021/09/02 05:14:22;;;;;;;8.23;5.55;;;10.50;95.40;;;;;;5013442;28;20553;-89
2021/09/02 05:16:48;;;;;;;8.55;5.60;;;10.60;95.40;;;;;;5014490;28;20033;-88
2021/09/02 05:19:13;;;;;;;6.65;5.20;;;10.60;95.40;;;;;;5019076;28;20064;-88
2021/09/02 05:21:39;;;;;;;7.75;4.97;;;10.60;95.40;;;;;;5017631;28;20404;-88
2021/09/02 05:24:05;;;;;;;6.75;5.43;;;10.60;95.30;;;;;;5019313;28;20116;-88
2021/09/02 05:26:31;;;;;;;8.05;6.15;;;10.60;95.40;;;;;;5030679;28;20108;-88
2021/09/02 05:28:56;;;;;;;7.78;4.82;;;10.70;95.40;;;;;;5015084;28;20176;-88
2021/09/02 05:31:22;;;;;;;6.43;5.18;;;10.70;95.40;;;;;;5018030;28;20032;-88
2021/09/02 05:33:48;;;;;;;6.07;4.75;;;10.70;95.40;;;;;;5036422;28;20028;-88
2021/09/02 05:36:14;;;;;;;5.53;4.75;;;10.70;95.30;;;;;;5028161;28;20021;-87
2021/09/02 05:38:40;;;;;;;5.13;4.47;;;10.80;95.30;;;;;;5016201;28;20075;-88
2021/09/02 05:41:06;;;;;;;6.80;5.40;;;10.70;95.30;;;;;;5033486;28;20029;-88
2021/09/02 05:43:32;;;;;;;6.55;5.55;;;10.80;95.30;;;;;;5033502;28;20026;-88
2021/09/02 05:45:58;;;;;;;6.88;4.82;;;10.70;95.40;;;;;;5035071;28;20063;-88
2021/09/02 05:48:26;;;;;;;9.38;6.07;;;10.80;95.50;;;;;;5016685;28;20021;-88
2021/09/02 05:50:54;;;;;;;6.05;5.18;;;10.80;95.50;;;;;;5016241;28;20049;-87
2021/09/02 05:53:21;;;;;;;6.85;5.38;;;10.80;95.40;;;;;;5029153;28;20501;-88
2021/09/02 05:55:48;;;;;;;6.57;5.07;;;10.80;95.40;;;;;;5046438;28;20025;-88
2021/09/02 05:58:14;;;;;;;5.03;4.53;;;10.70;95.40;;;;;;5029276;28;20116;-87
2021/09/02 06:00:52;;;;;;;4.65;3.90;;;10.70;95.50;;;;;;5013470;28;20513;-87
2021/09/02 06:03:23;;;;;;;5.10;3.80;;;10.60;95.70;;;;;;5031066;28;20108;-87
2021/09/02 06:06:10;;;;;;;6.75;4.20;;;10.70;95.80;;;;;;5014846;28;20040;-88
2021/09/02 06:08:36;;;;;;;3.80;3.35;;;10.70;95.80;;;;;;5012187;28;20083;-88
2021/09/02 06:11:08;;;;;;;4.72;3.88;;;10.70;95.80;;;;;;5011114;28;20124;-89
2021/09/02 06:13:34;;;;;;;5.93;4.38;;;10.80;95.90;;;;;;5013948;28;20132;-88
2021/09/02 06:16:01;;;;;;;9.05;6.07;;;10.90;96.00;;;;;;5014522;28;20060;-88
2021/09/02 06:18:30;;;;;;;21.00;14.25;;;10.90;96.00;;;;;;5014690;28;20030;-87
2021/09/02 06:20:58;;;;;;;9.82;7.68;;;11.00;96.00;;;;;;5015196;28;20036;-88
2021/09/02 06:23:24;;;;;;;12.15;9.00;;;11.10;96.10;;;;;;5033132;28;20075;-88
2021/09/02 06:25:50;;;;;;;15.95;9.93;;;11.20;96.10;;;;;;5022707;28;20697;-88
2021/09/02 06:28:24;;;;;;;14.60;9.85;;;11.20;96.10;;;;;;5016118;28;20048;-88
2021/09/02 06:30:55;;;;;;;13.98;9.80;;;11.30;96.10;;;;;;5015046;28;20108;-87
2021/09/02 06:33:26;;;;;;;14.35;9.82;;;11.40;96.20;;;;;;5014697;28;20120;-87
2021/09/02 06:35:55;;;;;;;14.25;9.95;;;11.50;96.20;;;;;;5013946;28;20112;-88
2021/09/02 06:38:39;;;;;;;12.68;9.50;;;11.60;96.20;;;;;;5032841;28;20490;-88
2021/09/02 06:41:05;;;;;;;13.75;9.77;;;11.60;96.20;;;;;;5016295;28;20036;-88
2021/09/02 06:43:49;;;;;;;14.63;9.25;;;11.60;96.20;;;;;;5024340;28;20033;-88
2021/09/02 06:46:30;;;;;;;13.45;10.05;;;11.80;96.30;;;;;;5016103;28;20053;-88
2021/09/02 06:48:58;;;;;;;15.18;9.55;;;11.90;96.30;;;;;;5016441;28;20030;-88
2021/09/02 06:51:36;;;;;;;17.55;9.25;;;11.90;96.30;;;;;;5015783;28;20021;-88
2021/09/02 06:54:04;;;;;;;14.60;9.07;;;12.00;96.30;;;;;;5014600;28;20512;-88
2021/09/02 06:56:33;;;;;;;12.75;9.20;;;12.10;96.30;;;;;;5021067;28;20056;-88
2021/09/02 06:58:59;;;;;;;16.55;10.10;;;12.10;96.40;;;;;;5030306;28;20041;-88
2021/09/02 07:01:42;;;;;;;13.88;9.40;;;12.20;96.30;;;;;;5007095;28;20050;-88
2021/09/02 07:04:21;;;;;;;14.55;9.90;;;12.20;96.40;;;;;;5015439;28;20018;-88
2021/09/02 07:06:58;;;;;;;13.40;9.52;;;12.40;96.40;;;;;;5025839;28;20026;-87
2021/09/02 07:09:24;;;;;;;19.95;13.57;;;12.50;96.50;;;;;;5021320;28;20547;-88
2021/09/02 07:12:00;;;;;;;18.70;12.13;;;12.50;96.40;;;;;;5017855;28;20033;-88
2021/09/02 07:14:35;;;;;;;13.05;9.88;;;12.60;96.40;;;;;;5009217;28;20091;-88
2021/09/02 07:17:06;;;;;;;16.75;9.23;;;12.70;96.40;;;;;;5015044;28;20048;-89
2021/09/02 07:19:45;;;;;;;15.52;9.75;;;12.80;96.40;;;;;;5033990;28;20549;-89
2021/09/02 07:22:16;;;;;;;13.68;9.52;;;12.90;96.40;;;;;;5032604;28;20049;-88
2021/09/02 07:24:47;;;;;;;15.25;8.75;;;13.10;96.40;;;;;;5031900;28;20083;-88
2021/09/02 07:27:13;;;;;;;13.50;9.48;;;13.20;96.30;;;;;;5030810;28;20486;-87
2021/09/02 07:29:38;;;;;;;13.35;9.05;;;13.40;96.30;;;;;;5035939;28;20036;-87
2021/09/02 07:32:07;;;;;;;14.82;9.02;;;13.60;96.30;;;;;;5036773;28;20033;-88
2021/09/02 07:34:35;;;;;;;14.75;8.25;;;13.70;96.20;;;;;;5020523;28;20033;-87
2021/09/02 07:37:04;;;;;;;11.15;8.55;;;14.00;96.20;;;;;;5015956;28;20037;-87
2021/09/02 07:39:32;;;;;;;11.23;8.55;;;14.20;96.10;;;;;;5033853;28;20033;-89
2021/09/02 07:42:03;;;;;;;12.38;7.88;;;14.50;96.00;;;;;;5051027;28;20013;-88
2021/09/02 07:44:37;;;;;;;13.68;8.20;;;14.70;95.90;;;;;;5038530;28;20033;-88
2021/09/02 07:47:06;;;;;;;11.25;7.50;;;15.00;95.80;;;;;;5036570;28;20040;-86
2021/09/02 07:49:31;;;;;;;11.70;7.60;;;15.20;95.60;;;;;;5017062;28;20029;-88
2021/09/02 07:51:57;;;;;;;10.70;7.63;;;15.50;95.40;;;;;;5016069;28;20113;-88
2021/09/02 07:54:28;;;;;;;15.82;7.75;;;15.80;95.30;;;;;;5035484;28;20080;-88
2021/09/02 07:56:53;;;;;;;10.23;6.93;;;16.10;95.00;;;;;;5039596;28;20065;-87
2021/09/02 07:59:21;;;;;;;11.20;7.25;;;16.40;94.80;;;;;;5025485;28;20485;-87
2021/09/02 08:01:47;;;;;;;10.35;7.13;;;16.70;94.60;;;;;;5017826;28;20049;-87
2021/09/02 08:04:15;;;;;;;12.18;6.47;;;17.10;94.20;;;;;;5017912;28;20029;-87
2021/09/02 08:06:41;;;;;;;10.52;6.70;;;17.60;93.80;;;;;;5033331;28;20034;-87
2021/09/02 08:09:06;;;;;;;9.02;6.38;;;18.20;93.20;;;;;;5030743;28;20125;-88
2021/09/02 08:11:32;;;;;;;10.05;6.00;;;18.90;92.40;;;;;;5037115;28;20413;-87
2021/09/02 08:13:58;;;;;;;7.35;5.30;;;19.50;91.40;;;;;;5022911;28;20116;-87
2021/09/02 08:16:25;;;;;;;6.78;5.20;;;20.20;90.60;;;;;;5017748;28;20048;-87
2021/09/02 08:19:00;;;;;;;6.38;5.13;;;20.70;89.50;;;;;;5014698;28;20490;-87
2021/09/02 08:21:30;;;;;;;6.75;4.68;;;21.30;87.00;;;;;;5030267;28;20099;-87
2021/09/02 08:24:01;;;;;;;5.72;4.78;;;21.70;85.80;;;;;;5030562;28;20037;-87
2021/09/02 08:26:31;;;;;;;6.88;4.93;;;22.10;84.20;;;;;;5018443;28;20108;-87
2021/09/02 08:29:01;;;;;;;9.20;5.28;;;22.50;83.40;;;;;;5018397;28;20029;-87
2021/09/02 08:31:53;;;;;;;5.75;4.47;;;22.70;82.80;;;;;;5036389;28;20095;-92
2021/09/02 08:34:48;;;;;;;6.72;5.00;;;22.80;81.10;;;;;;5035742;28;20595;-91
2021/09/02 08:37:44;;;;;;;6.38;4.72;;;22.80;81.50;;;;;;5019194;28;20499;-91
2021/09/02 08:40:16;;;;;;;6.75;4.57;;;22.70;81.60;;;;;;5021291;28;20022;-92
2021/09/02 08:42:58;;;;;;;5.50;4.40;;;22.60;82.30;;;;;;5017668;28;20029;-92
2021/09/02 08:45:27;;;;;;;6.30;4.88;;;22.50;83.10;;;;;;5018277;28;20032;-92
2021/09/02 08:47:54;;;;;;;5.90;4.60;;;22.50;83.50;;;;;;5019638;28;20037;-91
2021/09/02 08:50:32;;;;;;;6.15;4.53;;;22.60;83.40;;;;;;5014799;28;20029;-92
2021/09/02 08:53:26;;;;;;;5.55;4.70;;;22.70;82.90;;;;;;5035959;28;20083;-92
2021/09/02 08:56:10;;;;;;;4.78;4.22;;;22.70;82.40;;;;;;5035447;28;20033;-92
2021/09/02 08:58:48;;;;;;;8.75;4.90;;;22.80;82.70;;;;;;5017783;28;20064;-91
2021/09/02 09:01:30;;;;;;;9.00;4.80;;;22.90;81.80;;;;;;5016939;28;20469;-91
2021/09/02 09:04:23;;;;;;;8.05;4.78;;;22.90;81.80;;;;;;5019974;28;20056;-92
2021/09/02 09:07:05;;;;;;;6.25;5.10;;;23.00;81.50;;;;;;5016407;28;20132;-92
2021/09/02 09:09:41;;;;;;;10.43;4.75;;;23.10;81.80;;;;;;5032197;28;20061;-92
2021/09/02 09:12:30;;;;;;;6.15;4.82;;;23.10;82.40;;;;;;5023328;28;20033;-91
2021/09/02 09:14:56;;;;;;;5.95;4.97;;;23.20;81.50;;;;;;5032875;28;20045;-92
2021/09/02 09:17:23;;;;;;;5.88;4.65;;;23.20;81.60;;;;;;5019231;28;20120;-93
2021/09/02 09:20:09;;;;;;;7.40;5.05;;;23.20;81.00;;;;;;5019012;28;20041;-93
2021/09/02 09:22:40;;;;;;;7.50;4.55;;;23.20;79.90;;;;;;5017634;28;20531;-92
2021/09/02 09:25:10;;;;;;;6.15;4.15;;;23.20;80.50;;;;;;5028869;28;20036;-93
2021/09/02 09:27:39;;;;;;;17.48;11.68;;;23.30;80.60;;;;;;5010288;28;20052;-94
2021/09/02 09:30:15;;;;;;;6.28;4.85;;;23.30;79.90;;;;;;5019006;28;20413;-92
2021/09/02 09:32:53;;;;;;;8.65;4.63;;;23.30;78.80;;;;;;5018384;28;20082;-92
2021/09/02 09:35:24;;;;;;;7.43;4.07;;;23.30;78.70;;;;;;4997801;28;20375;-92
2021/09/02 09:38:10;;;;;;;5.78;4.10;;;23.20;77.90;;;;;;5000909;28;20402;-92
2021/09/02 09:40:38;;;;;;;7.97;5.40;;;23.10;78.00;;;;;;5044112;28;20139;-92
2021/09/02 09:43:07;;;;;;;4.25;3.67;;;23.10;77.80;;;;;;5046259;28;20034;-92
2021/09/02 09:45:40;;;;;;;6.18;4.40;;;23.10;77.50;;;;;;5019296;28;20084;-92
2021/09/02 09:48:53;;;;;;;6.22;4.35;;;23.10;77.30;;;;;;5019663;28;20116;-92
2021/09/02 09:51:21;;;;;;;12.65;5.57;;;23.10;76.40;;;;;;5008404;28;20045;-92
2021/09/02 09:53:51;;;;;;;4.88;4.38;;;23.10;77.10;;;;;;5018896;28;20029;-92
2021/09/02 09:56:51;;;;;;;;;;;;;;;;;;;;;
2021/09/02 09:59:17;;;;;;;5.70;4.32;;;23.20;76.80;;;;;;5036273;28;20160;-92
2021/09/02 10:02:09;;;;;;;5.32;3.50;;;23.20;76.60;;;;;;5016956;28;20183;-92
2021/09/02 10:04:42;;;;;;;4.20;3.80;;;23.20;75.50;;;;;;5015742;28;20485;-92
2021/09/02 10:07:42;;;;;;;5.70;4.30;;;23.30;76.20;;;;;;5032986;28;20033;-92
2021/09/02 10:10:44;;;;;;;6.82;3.97;;;23.30;75.10;;;;;;5038688;28;20033;-92
2021/09/02 10:13:12;;;;;;;5.40;3.85;;;23.30;74.70;;;;;;5029225;28;20034;-94
2021/09/02 10:15:38;;;;;;;7.72;3.90;;;23.30;75.10;;;;;;5014390;28;20049;-93
2021/09/02 10:18:26;;;;;;;5.88;3.67;;;23.40;74.80;;;;;;5010032;28;20409;-93
2021/09/02 10:21:14;;;;;;;7.75;3.85;;;23.40;73.10;;;;;;5015158;28;20133;-93
2021/09/02 10:23:39;;;;;;;7.63;4.05;;;23.40;73.00;;;;;;4999680;28;20498;-92
2021/09/02 10:26:05;;;;;;;4.85;4.00;;;23.50;73.10;;;;;;5014536;28;20036;-92
2021/09/02 10:28:35;;;;;;;5.63;4.50;;;23.50;73.70;;;;;;5025656;22;20058;-74
2021/09/02 10:31:04;;;;;;;5.28;4.22;;;23.60;72.50;;;;;;5045305;28;20585;-74
2021/09/02 10:33:36;;;;;;;5.20;3.78;;;23.70;72.50;;;;;;5050108;28;20433;-70
2021/09/02 10:36:23;;;;;;;5.63;4.03;;;23.70;71.70;;;;;;5027778;28;20024;-67
2021/09/02 10:38:52;;;;;;;5.93;4.20;;;23.70;71.40;;;;;;5047114;28;20021;-67
2021/09/02 10:41:36;;;;;;;5.45;3.95;;;23.80;71.60;;;;;;5058631;28;20013;-68
2021/09/02 10:44:06;;;;;;;7.03;4.03;;;23.80;70.70;;;;;;5050526;28;20494;-71
2021/09/02 10:46:38;;;;;;;5.68;4.13;;;23.80;70.70;;;;;;5049703;28;20056;-72
2021/09/02 10:49:14;;;;;;;4.22;3.70;;;23.80;70.80;;;;;;5050676;28;20017;-69
2021/09/02 10:51:41;;;;;;;7.03;4.05;;;23.90;70.30;;;;;;5048883;28;20636;-67
2021/09/02 10:54:09;;;;;;;4.70;3.72;;;23.90;71.00;;;;;;5050326;28;20139;-67
2021/09/02 10:56:51;;;;;;;7.20;4.10;;;24.00;70.20;;;;;;5049817;28;20108;-68
2021/09/02 10:59:41;;;;;;;4.53;4.13;;;24.00;69.40;;;;;;5042515;28;20045;-68
2021/09/02 11:02:28;;;;;;;4.85;3.88;;;24.00;69.30;;;;;;5032673;28;20159;-68
2021/09/02 11:05:05;;;;;;;7.43;3.70;;;23.90;69.30;;;;;;5021618;28;20124;-66
2021/09/02 11:07:35;;;;;;;4.72;3.72;;;23.90;69.10;;;;;;5030525;28;20018;-68
2021/09/02 11:10:15;;;;;;;6.93;3.75;;;23.90;68.80;;;;;;5030442;28;20377;-68
2021/09/02 11:12:41;;;;;;;5.50;3.90;;;24.00;68.50;;;;;;5035856;28;20029;-68
2021/09/02 11:15:08;;;;;;;4.10;3.60;;;24.00;68.60;;;;;;5041857;28;20156;-67
2021/09/02 11:17:33;;;;;;;5.78;3.75;;;24.00;68.40;;;;;;5038079;28;20025;-67
2021/09/02 11:19:59;;;;;;;7.05;3.42;;;23.90;68.40;;;;;;5050214;28;20028;-68
2021/09/02 11:22:25;;;;;;;4.68;3.47;;;23.90;68.20;;;;;;5042474;28;20021;-71
2021/09/02 11:24:52;;;;;;;5.32;3.78;;;23.90;67.60;;;;;;5019703;28;20079;-70
2021/09/02 11:27:31;;;;;;;5.30;3.75;;;23.90;67.50;;;;;;5044552;28;20017;-68
2021/09/02 11:30:12;;;;;;;5.60;3.45;;;23.90;67.00;;;;;;5044426;28;20079;-72
2021/09/02 11:32:38;;;;;;;4.38;3.83;;;23.90;66.50;;;;;;5030519;28;20025;-68
2021/09/02 11:35:04;;;;;;;5.68;3.70;;;23.90;67.20;;;;;;5038102;28;20036;-68
2021/09/02 11:37:41;;;;;;;4.35;3.83;;;23.80;67.00;;;;;;5030103;28;20118;-68
2021/09/02 11:40:08;;;;;;;4.53;3.70;;;23.80;66.50;;;;;;5030524;28;20029;-68
2021/09/02 11:42:34;;;;;;;4.82;3.50;;;23.90;67.20;;;;;;5012626;28;20022;-68
2021/09/02 11:45:00;;;;;;;4.10;3.38;;;23.90;67.20;;;;;;5029116;28;20029;-68
2021/09/02 11:47:36;;;;;;;4.80;3.78;;;23.90;67.80;;;;;;5025885;28;20025;-67
2021/09/02 11:50:04;;;;;;;4.65;3.40;;;23.90;66.80;;;;;;5048693;28;20095;-68
2021/09/02 11:52:39;;;;;;;7.00;3.60;;;24.00;67.10;;;;;;5046750;28;20087;-73
2021/09/02 11:55:06;;;;;;;8.77;3.67;;;24.00;66.90;;;;;;5038991;28;20025;-67
2021/09/02 11:57:31;;;;;;;5.63;3.70;;;24.10;66.80;;;;;;5050030;28;20439;-74
2021/09/02 11:59:57;;;;;;;5.68;3.13;;;24.10;66.20;;;;;;5031932;28;20032;-67
2021/09/02 12:02:22;;;;;;;4.85;3.08;;;24.10;66.30;;;;;;5055116;28;20079;-68
2021/09/02 12:04:52;;;;;;;5.05;3.30;;;24.20;65.90;;;;;;5063784;28;20033;-69
2021/09/02 12:07:18;;;;;;;4.10;3.70;;;24.10;65.30;;;;;;5049031;28;20013;-67
2021/09/02 12:09:48;;;;;;;4.25;3.50;;;24.10;65.80;;;;;;5050197;28;20094;-70
2021/09/02 12:12:29;;;;;;;3.92;3.45;;;24.10;66.10;;;;;;5032411;28;20024;-72
2021/09/02 12:14:55;;;;;;;3.50;3.03;;;24.20;65.00;;;;;;5049141;28;20434;-68
2021/09/02 12:17:31;;;;;;;5.07;3.55;;;24.20;65.40;;;;;;5031615;28;20025;-68
2021/09/02 12:20:01;;;;;;;6.65;3.10;;;24.10;65.00;;;;;;5053510;28;20029;-68
2021/09/02 12:22:30;;;;;;;5.32;3.20;;;24.20;65.60;;;;;;5053427;28;20428;-68
2021/09/02 12:25:17;;;;;;;4.60;3.42;;;24.20;65.50;;;;;;5040213;28;20032;-67
2021/09/02 12:27:49;;;;;;;3.67;3.28;;;24.20;64.60;;;;;;5053613;28;20052;-68
2021/09/02 12:30:17;;;;;;;5.65;3.15;;;24.20;64.70;;;;;;5052940;28;20500;-70
2021/09/02 12:32:42;;;;;;;4.72;3.63;;;24.10;65.30;;;;;;5053592;28;20428;-71
2021/09/02 12:35:16;;;;;;;4.22;3.03;;;24.10;64.60;;;;;;5044939;28;20076;-68
2021/09/02 12:37:43;;;;;;;3.78;3.20;;;24.10;63.90;;;;;;5027355;28;20029;-66
2021/09/02 12:40:16;;;;;;;3.90;3.22;;;24.10;64.40;;;;;;5015775;28;20102;-70
2021/09/02 12:42:42;;;;;;;6.32;3.30;;;24.10;64.10;;;;;;5033339;28;20432;-67
2021/09/02 12:45:17;;;;;;;4.78;3.70;;;24.20;64.50;;;;;;5046159;28;20024;-74
2021/09/02 12:47:45;;;;;;;5.10;3.40;;;24.20;64.10;;;;;;5035036;28;20025;-74
2021/09/02 12:50:20;;;;;;;4.53;3.33;;;24.20;64.20;;;;;;5025760;28;20033;-72
2021/09/02 12:52:46;;;;;;;5.45;3.35;;;24.10;63.80;;;;;;5026696;28;20037;-73
2021/09/02 12:55:23;;;;;;;5.55;3.38;;;24.20;64.70;;;;;;5038026;28;20025;-73
2021/09/02 12:57:56;;;;;;;5.20;3.15;;;24.20;64.20;;;;;;5047746;28;20053;-75
2021/09/02 13:00:23;;;;;;;4.72;3.10;;;24.30;64.00;;;;;;5051170;28;20148;-73